sensor_id;sensor_type;location;lat;lon;timestamp;P1;durP1;ratioP1;P2;durP2;ratioP2
6113;SDS011;3087;48.392;10.836;2024-01-15T00:01:29;21.60;;;13.50;;
6113;SDS011;3087;48.392;10.836;2024-01-15T00:03:55;21.23;;;12.50;;
6113;SDS011;3087;48.392;10.836;2024-01-15T00:06:20;20.73;;;12.30;;
6113;SDS011;3087;48.392;10.836;2024-01-15T00:08:46;22.40;;;13.60;;
6113;SDS011;3087;48.392;10.836;2024-01-15T00:11:12;20.47;;;12.70;;
6113;SDS011;3087;48.392;10.836;2024-01-15T00:13:37;22.50;;;14.00;;
6113;SDS011;3087;48.392;10.836;2024-01-15T00:16:06;21.87;;;13.40;;
6113;SDS011;3087;48.392;10.836;2024-01-15T00:18:31;23.17;;;13.23;;
6113;SDS011;3087;48.392;10.836;2024-01-15T00:20:57;19.83;;;11.93;;
6113;SDS011;3087;48.392;10.836;2024-01-15T00:23:22;22.33;;;13.40;;
6113;SDS011;3087;48.392;10.836;2024-01-15T00:25:48;20.40;;;12.97;;
6113;SDS011;3087;48.392;10.836;2024-01-15T00:28:15;19.27;;;11.40;;
6113;SDS011;3087;48.392;10.836;2024-01-15T00:30:41;20.20;;;12.07;;
6113;SDS011;3087;48.392;10.836;2024-01-15T00:33:06;23.23;;;13.50;;
6113;SDS011;3087;48.392;10.836;2024-01-15T00:35:32;22.20;;;13.40;;
6113;SDS011;3087;48.392;10.836;2024-01-15T00:37:58;20.97;;;12.87;;
6113;SDS011;3087;48.392;10.836;2024-01-15T00:40:23;21.77;;;12.63;;
6113;SDS011;3087;48.392;10.836;2024-01-15T00:42:50;18.70;;;12.60;;
6113;SDS011;3087;48.392;10.836;2024-01-15T00:45:16;20.37;;;11.80;;
6113;SDS011;3087;48.392;10.836;2024-01-15T00:47:41;20.20;;;11.90;;
6113;SDS011;3087;48.392;10.836;2024-01-15T00:50:07;21.13;;;12.43;;
6113;SDS011;3087;48.392;10.836;2024-01-15T00:52:33;20.47;;;12.57;;
6113;SDS011;3087;48.392;10.836;2024-01-15T00:54:59;22.87;;;13.00;;
6113;SDS011;3087;48.392;10.836;2024-01-15T00:57:24;19.33;;;12.20;;
6113;SDS011;3087;48.392;10.836;2024-01-15T00:59:50;18.70;;;11.20;;
6113;SDS011;3087;48.392;10.836;2024-01-15T01:02:15;20.50;;;11.00;;
6113;SDS011;3087;48.392;10.836;2024-01-15T01:04:41;19.83;;;12.53;;
6113;SDS011;3087;48.392;10.836;2024-01-15T01:07:06;18.07;;;11.10;;
6113;SDS011;3087;48.392;10.836;2024-01-15T01:09:32;20.73;;;11.33;;
6113;SDS011;3087;48.392;10.836;2024-01-15T01:11:58;20.40;;;12.53;;
6113;SDS011;3087;48.392;10.836;2024-01-15T01:14:23;19.10;;;12.00;;
6113;SDS011;3087;48.392;10.836;2024-01-15T01:16:49;19.57;;;12.03;;
6113;SDS011;3087;48.392;10.836;2024-01-15T01:19:14;18.47;;;11.27;;
6113;SDS011;3087;48.392;10.836;2024-01-15T01:21:40;20.93;;;11.50;;
6113;SDS011;3087;48.392;10.836;2024-01-15T01:24:06;18.73;;;10.97;;
6113;SDS011;3087;48.392;10.836;2024-01-15T01:26:31;19.57;;;10.70;;
6113;SDS011;3087;48.392;10.836;2024-01-15T01:28:57;15.43;;;10.00;;
6113;SDS011;3087;48.392;10.836;2024-01-15T01:31:23;19.70;;;11.17;;
6113;SDS011;3087;48.392;10.836;2024-01-15T01:33:49;18.50;;;10.63;;
6113;SDS011;3087;48.392;10.836;2024-01-15T01:36:14;16.80;;;10.50;;
6113;SDS011;3087;48.392;10.836;2024-01-15T01:38:40;17.77;;;10.30;;
6113;SDS011;3087;48.392;10.836;2024-01-15T01:41:06;18.87;;;10.17;;
6113;SDS011;3087;48.392;10.836;2024-01-15T01:43:32;19.93;;;11.50;;
6113;SDS011;3087;48.392;10.836;2024-01-15T01:45:58;18.27;;;11.07;;
6113;SDS011;3087;48.392;10.836;2024-01-15T01:48:25;16.10;;;10.87;;
6113;SDS011;3087;48.392;10.836;2024-01-15T01:50:55;18.10;;;11.07;;
6113;SDS011;3087;48.392;10.836;2024-01-15T01:53:23;19.47;;;10.97;;
6113;SDS011;3087;48.392;10.836;2024-01-15T01:55:51;16.13;;;10.13;;
6113;SDS011;3087;48.392;10.836;2024-01-15T01:58:17;15.83;;;9.97;;
6113;SDS011;3087;48.392;10.836;2024-01-15T02:00:44;19.17;;;10.10;;
6113;SDS011;3087;48.392;10.836;2024-01-15T02:03:11;16.40;;;9.97;;
6113;SDS011;3087;48.392;10.836;2024-01-15T02:05:37;15.27;;;9.53;;
6113;SDS011;3087;48.392;10.836;2024-01-15T02:08:04;17.77;;;10.67;;
6113;SDS011;3087;48.392;10.836;2024-01-15T02:10:30;15.20;;;9.63;;
6113;SDS011;3087;48.392;10.836;2024-01-15T02:12:56;14.37;;;8.90;;
6113;SDS011;3087;48.392;10.836;2024-01-15T02:15:21;15.13;;;9.93;;
6113;SDS011;3087;48.392;10.836;2024-01-15T02:18:00;14.20;;;8.90;;
6113;SDS011;3087;48.392;10.836;2024-01-15T02:20:26;16.90;;;9.37;;
6113;SDS011;3087;48.392;10.836;2024-01-15T02:22:52;17.00;;;9.40;;
6113;SDS011;3087;48.392;10.836;2024-01-15T02:25:18;15.03;;;8.83;;
6113;SDS011;3087;48.392;10.836;2024-01-15T02:27:44;12.17;;;8.03;;
6113;SDS011;3087;48.392;10.836;2024-01-15T02:30:11;15.77;;;8.37;;
6113;SDS011;3087;48.392;10.836;2024-01-15T02:32:37;13.00;;;8.83;;
6113;SDS011;3087;48.392;10.836;2024-01-15T02:35:03;15.33;;;8.47;;
6113;SDS011;3087;48.392;10.836;2024-01-15T02:37:29;13.23;;;8.20;;
6113;SDS011;3087;48.392;10.836;2024-01-15T02:39:55;15.57;;;8.80;;
6113;SDS011;3087;48.392;10.836;2024-01-15T02:42:20;13.87;;;8.80;;
6113;SDS011;3087;48.392;10.836;2024-01-15T02:44:46;12.80;;;8.60;;
6113;SDS011;3087;48.392;10.836;2024-01-15T02:47:13;12.50;;;7.93;;
6113;SDS011;3087;48.392;10.836;2024-01-15T02:49:39;13.13;;;8.07;;
6113;SDS011;3087;48.392;10.836;2024-01-15T02:52:05;14.10;;;8.60;;
6113;SDS011;3087;48.392;10.836;2024-01-15T02:54:31;16.03;;;9.53;;
6113;SDS011;3087;48.392;10.836;2024-01-15T02:56:56;16.17;;;9.83;;
6113;SDS011;3087;48.392;10.836;2024-01-15T02:59:22;13.90;;;8.50;;
6113;SDS011;3087;48.392;10.836;2024-01-15T03:01:47;16.10;;;8.10;;
6113;SDS011;3087;48.392;10.836;2024-01-15T03:04:13;12.87;;;8.87;;
6113;SDS011;3087;48.392;10.836;2024-01-15T03:06:38;14.60;;;8.70;;
6113;SDS011;3087;48.392;10.836;2024-01-15T03:09:04;13.43;;;8.50;;
6113;SDS011;3087;48.392;10.836;2024-01-15T03:11:36;15.23;;;8.37;;
6113;SDS011;3087;48.392;10.836;2024-01-15T03:14:02;13.40;;;8.80;;
6113;SDS011;3087;48.392;10.836;2024-01-15T03:16:28;12.10;;;7.83;;
6113;SDS011;3087;48.392;10.836;2024-01-15T03:18:53;13.20;;;9.10;;
6113;SDS011;3087;48.392;10.836;2024-01-15T03:21:19;13.90;;;8.57;;
6113;SDS011;3087;48.392;10.836;2024-01-15T03:23:45;14.43;;;8.70;;
6113;SDS011;3087;48.392;10.836;2024-01-15T03:26:10;12.13;;;7.87;;
6113;SDS011;3087;48.392;10.836;2024-01-15T03:28:36;13.03;;;8.00;;
6113;SDS011;3087;48.392;10.836;2024-01-15T03:31:01;13.80;;;8.10;;
6113;SDS011;3087;48.392;10.836;2024-01-15T03:33:27;10.20;;;7.33;;
6113;SDS011;3087;48.392;10.836;2024-01-15T03:35:53;14.73;;;8.07;;
6113;SDS011;3087;48.392;10.836;2024-01-15T03:38:18;12.00;;;7.27;;
6113;SDS011;3087;48.392;10.836;2024-01-15T03:40:44;15.97;;;8.53;;
6113;SDS011;3087;48.392;10.836;2024-01-15T03:43:09;13.60;;;8.67;;
6113;SDS011;3087;48.392;10.836;2024-01-15T03:45:35;14.20;;;8.10;;
6113;SDS011;3087;48.392;10.836;2024-01-15T03:48:00;12.07;;;7.80;;
6113;SDS011;3087;48.392;10.836;2024-01-15T03:50:26;14.10;;;8.10;;
6113;SDS011;3087;48.392;10.836;2024-01-15T03:52:51;15.60;;;8.77;;
6113;SDS011;3087;48.392;10.836;2024-01-15T03:55:17;11.23;;;7.60;;
6113;SDS011;3087;48.392;10.836;2024-01-15T03:57:43;12.63;;;7.43;;
6113;SDS011;3087;48.392;10.836;2024-01-15T04:00:08;10.87;;;7.37;;
6113;SDS011;3087;48.392;10.836;2024-01-15T04:02:34;11.47;;;7.27;;
6113;SDS011;3087;48.392;10.836;2024-01-15T04:05:00;10.97;;;7.53;;
6113;SDS011;3087;48.392;10.836;2024-01-15T04:07:26;12.37;;;7.57;;
6113;SDS011;3087;48.392;10.836;2024-01-15T04:09:51;13.37;;;8.37;;
6113;SDS011;3087;48.392;10.836;2024-01-15T04:12:17;11.93;;;8.27;;
6113;SDS011;3087;48.392;10.836;2024-01-15T04:14:42;12.10;;;7.60;;
6113;SDS011;3087;48.392;10.836;2024-01-15T04:17:08;12.20;;;7.33;;
6113;SDS011;3087;48.392;10.836;2024-01-15T04:19:33;12.63;;;7.67;;
6113;SDS011;3087;48.392;10.836;2024-01-15T04:21:59;12.63;;;7.83;;
6113;SDS011;3087;48.392;10.836;2024-01-15T04:24:24;11.67;;;7.53;;
6113;SDS011;3087;48.392;10.836;2024-01-15T04:26:50;12.27;;;8.27;;
6113;SDS011;3087;48.392;10.836;2024-01-15T04:29:16;12.17;;;7.57;;
6113;SDS011;3087;48.392;10.836;2024-01-15T04:31:42;12.77;;;7.97;;
6113;SDS011;3087;48.392;10.836;2024-01-15T04:34:07;10.07;;;7.03;;
6113;SDS011;3087;48.392;10.836;2024-01-15T04:36:38;12.73;;;7.43;;
6113;SDS011;3087;48.392;10.836;2024-01-15T04:39:05;13.00;;;7.50;;
6113;SDS011;3087;48.392;10.836;2024-01-15T04:41:30;12.23;;;7.67;;
6113;SDS011;3087;48.392;10.836;2024-01-15T04:43:56;11.50;;;7.50;;
6113;SDS011;3087;48.392;10.836;2024-01-15T04:46:21;11.83;;;6.93;;
6113;SDS011;3087;48.392;10.836;2024-01-15T04:48:49;9.77;;;6.67;;
6113;SDS011;3087;48.392;10.836;2024-01-15T04:51:18;10.13;;;6.93;;
6113;SDS011;3087;48.392;10.836;2024-01-15T04:53:44;11.10;;;6.70;;
6113;SDS011;3087;48.392;10.836;2024-01-15T04:56:09;12.50;;;6.97;;
6113;SDS011;3087;48.392;10.836;2024-01-15T04:58:35;11.57;;;6.27;;
6113;SDS011;3087;48.392;10.836;2024-01-15T05:01:00;14.23;;;7.53;;
6113;SDS011;3087;48.392;10.836;2024-01-15T05:03:26;9.87;;;6.60;;
6113;SDS011;3087;48.392;10.836;2024-01-15T05:05:52;8.60;;;6.00;;
6113;SDS011;3087;48.392;10.836;2024-01-15T05:08:17;11.40;;;6.53;;
6113;SDS011;3087;48.392;10.836;2024-01-15T05:10:43;12.10;;;6.90;;
6113;SDS011;3087;48.392;10.836;2024-01-15T05:13:08;8.83;;;5.80;;
6113;SDS011;3087;48.392;10.836;2024-01-15T05:15:34;10.73;;;6.70;;
6113;SDS011;3087;48.392;10.836;2024-01-15T05:17:59;8.80;;;6.40;;
6113;SDS011;3087;48.392;10.836;2024-01-15T05:20:25;11.70;;;6.57;;
6113;SDS011;3087;48.392;10.836;2024-01-15T05:22:50;10.70;;;6.67;;
6113;SDS011;3087;48.392;10.836;2024-01-15T05:25:16;10.23;;;6.23;;
6113;SDS011;3087;48.392;10.836;2024-01-15T05:27:41;9.90;;;6.00;;
6113;SDS011;3087;48.392;10.836;2024-01-15T05:30:07;10.27;;;6.87;;
6113;SDS011;3087;48.392;10.836;2024-01-15T05:32:33;9.63;;;5.77;;
6113;SDS011;3087;48.392;10.836;2024-01-15T05:34:58;10.13;;;6.93;;
6113;SDS011;3087;48.392;10.836;2024-01-15T05:37:24;11.23;;;6.03;;
6113;SDS011;3087;48.392;10.836;2024-01-15T05:39:49;9.37;;;5.90;;
6113;SDS011;3087;48.392;10.836;2024-01-15T05:42:15;9.43;;;6.23;;
6113;SDS011;3087;48.392;10.836;2024-01-15T05:44:41;7.60;;;5.37;;
6113;SDS011;3087;48.392;10.836;2024-01-15T05:47:07;10.20;;;6.40;;
6113;SDS011;3087;48.392;10.836;2024-01-15T05:49:33;9.53;;;6.23;;
6113;SDS011;3087;48.392;10.836;2024-01-15T05:51:58;8.67;;;5.93;;
6113;SDS011;3087;48.392;10.836;2024-01-15T05:54:24;10.77;;;6.07;;
6113;SDS011;3087;48.392;10.836;2024-01-15T05:56:49;8.17;;;5.80;;
6113;SDS011;3087;48.392;10.836;2024-01-15T05:59:15;7.83;;;5.37;;
6113;SDS011;3087;48.392;10.836;2024-01-15T06:01:40;9.13;;;5.17;;
6113;SDS011;3087;48.392;10.836;2024-01-15T06:04:06;9.23;;;5.87;;
6113;SDS011;3087;48.392;10.836;2024-01-15T06:06:31;9.33;;;5.97;;
6113;SDS011;3087;48.392;10.836;2024-01-15T06:08:57;9.30;;;6.30;;
6113;SDS011;3087;48.392;10.836;2024-01-15T06:11:30;8.90;;;6.03;;
6113;SDS011;3087;48.392;10.836;2024-01-15T06:13:56;9.53;;;5.87;;
6113;SDS011;3087;48.392;10.836;2024-01-15T06:16:22;7.80;;;5.93;;
6113;SDS011;3087;48.392;10.836;2024-01-15T06:18:50;7.43;;;5.37;;
6113;SDS011;3087;48.392;10.836;2024-01-15T06:21:16;8.63;;;5.90;;
6113;SDS011;3087;48.392;10.836;2024-01-15T06:23:41;8.40;;;5.30;;
6113;SDS011;3087;48.392;10.836;2024-01-15T06:26:07;6.70;;;5.07;;
6113;SDS011;3087;48.392;10.836;2024-01-15T06:28:33;9.07;;;5.60;;
6113;SDS011;3087;48.392;10.836;2024-01-15T06:30:58;8.03;;;5.37;;
6113;SDS011;3087;48.392;10.836;2024-01-15T06:33:24;8.40;;;5.70;;
6113;SDS011;3087;48.392;10.836;2024-01-15T06:35:50;6.07;;;4.50;;
6113;SDS011;3087;48.392;10.836;2024-01-15T06:38:16;7.33;;;5.27;;
6113;SDS011;3087;48.392;10.836;2024-01-15T06:40:41;7.30;;;5.10;;
6113;SDS011;3087;48.392;10.836;2024-01-15T06:43:10;6.20;;;4.80;;
6113;SDS011;3087;48.392;10.836;2024-01-15T06:45:36;7.07;;;4.77;;
6113;SDS011;3087;48.392;10.836;2024-01-15T06:48:02;5.63;;;4.60;;
6113;SDS011;3087;48.392;10.836;2024-01-15T06:50:28;6.37;;;5.03;;
6113;SDS011;3087;48.392;10.836;2024-01-15T06:52:53;5.90;;;4.20;;
6113;SDS011;3087;48.392;10.836;2024-01-15T06:55:19;8.97;;;4.67;;
6113;SDS011;3087;48.392;10.836;2024-01-15T06:57:45;5.80;;;4.57;;
6113;SDS011;3087;48.392;10.836;2024-01-15T07:00:10;7.33;;;5.30;;
6113;SDS011;3087;48.392;10.836;2024-01-15T07:02:36;7.97;;;4.93;;
6113;SDS011;3087;48.392;10.836;2024-01-15T07:05:02;6.10;;;4.83;;
6113;SDS011;3087;48.392;10.836;2024-01-15T07:07:30;6.57;;;4.50;;
6113;SDS011;3087;48.392;10.836;2024-01-15T07:09:55;6.90;;;5.67;;
6113;SDS011;3087;48.392;10.836;2024-01-15T07:12:21;7.13;;;5.50;;
6113;SDS011;3087;48.392;10.836;2024-01-15T07:14:47;6.80;;;5.10;;
6113;SDS011;3087;48.392;10.836;2024-01-15T07:17:13;10.03;;;5.30;;
6113;SDS011;3087;48.392;10.836;2024-01-15T07:19:38;8.43;;;4.90;;
6113;SDS011;3087;48.392;10.836;2024-01-15T07:22:04;6.70;;;4.63;;
6113;SDS011;3087;48.392;10.836;2024-01-15T07:24:29;6.63;;;4.33;;
6113;SDS011;3087;48.392;10.836;2024-01-15T07:26:55;6.83;;;4.57;;
6113;SDS011;3087;48.392;10.836;2024-01-15T07:29:21;7.93;;;6.47;;
6113;SDS011;3087;48.392;10.836;2024-01-15T07:31:52;6.47;;;4.90;;
6113;SDS011;3087;48.392;10.836;2024-01-15T07:34:18;6.93;;;5.00;;
6113;SDS011;3087;48.392;10.836;2024-01-15T07:36:44;7.00;;;4.87;;
6113;SDS011;3087;48.392;10.836;2024-01-15T07:39:10;8.37;;;5.17;;
6113;SDS011;3087;48.392;10.836;2024-01-15T07:41:36;6.93;;;5.23;;
6113;SDS011;3087;48.392;10.836;2024-01-15T07:44:02;7.53;;;5.00;;
6113;SDS011;3087;48.392;10.836;2024-01-15T07:46:28;8.23;;;5.23;;
6113;SDS011;3087;48.392;10.836;2024-01-15T07:48:53;7.40;;;4.73;;
6113;SDS011;3087;48.392;10.836;2024-01-15T07:51:21;6.83;;;4.30;;
6113;SDS011;3087;48.392;10.836;2024-01-15T07:53:47;5.83;;;4.20;;
6113;SDS011;3087;48.392;10.836;2024-01-15T07:56:13;5.20;;;4.10;;
6113;SDS011;3087;48.392;10.836;2024-01-15T07:58:38;6.90;;;4.70;;
6113;SDS011;3087;48.392;10.836;2024-01-15T08:01:04;5.03;;;3.70;;
6113;SDS011;3087;48.392;10.836;2024-01-15T08:03:29;5.70;;;3.73;;
6113;SDS011;3087;48.392;10.836;2024-01-15T08:05:55;4.77;;;3.43;;
6113;SDS011;3087;48.392;10.836;2024-01-15T08:08:23;5.17;;;4.20;;
6113;SDS011;3087;48.392;10.836;2024-01-15T08:10:49;6.97;;;4.43;;
6113;SDS011;3087;48.392;10.836;2024-01-15T08:13:14;6.67;;;4.10;;
6113;SDS011;3087;48.392;10.836;2024-01-15T08:15:40;6.47;;;4.10;;
6113;SDS011;3087;48.392;10.836;2024-01-15T08:18:06;5.07;;;3.60;;
6113;SDS011;3087;48.392;10.836;2024-01-15T08:20:32;6.93;;;4.50;;
6113;SDS011;3087;48.392;10.836;2024-01-15T08:22:57;5.20;;;4.20;;
6113;SDS011;3087;48.392;10.836;2024-01-15T08:25:24;7.27;;;5.00;;
6113;SDS011;3087;48.392;10.836;2024-01-15T08:27:51;5.67;;;4.40;;
6113;SDS011;3087;48.392;10.836;2024-01-15T08:30:17;6.83;;;5.07;;
6113;SDS011;3087;48.392;10.836;2024-01-15T08:32:43;8.43;;;4.97;;
6113;SDS011;3087;48.392;10.836;2024-01-15T08:35:10;6.00;;;4.63;;
6113;SDS011;3087;48.392;10.836;2024-01-15T08:37:35;7.67;;;5.20;;
6113;SDS011;3087;48.392;10.836;2024-01-15T08:40:01;8.27;;;5.00;;
6113;SDS011;3087;48.392;10.836;2024-01-15T08:42:28;9.07;;;6.27;;
6113;SDS011;3087;48.392;10.836;2024-01-15T08:44:54;6.43;;;4.37;;
6113;SDS011;3087;48.392;10.836;2024-01-15T08:47:19;6.03;;;4.63;;
6113;SDS011;3087;48.392;10.836;2024-01-15T08:49:45;6.23;;;4.03;;
6113;SDS011;3087;48.392;10.836;2024-01-15T08:52:11;6.03;;;4.00;;
6113;SDS011;3087;48.392;10.836;2024-01-15T08:54:53;6.93;;;4.23;;
6113;SDS011;3087;48.392;10.836;2024-01-15T08:57:19;5.53;;;4.03;;
6113;SDS011;3087;48.392;10.836;2024-01-15T08:59:44;5.50;;;4.10;;
6113;SDS011;3087;48.392;10.836;2024-01-15T09:02:10;5.37;;;4.13;;
6113;SDS011;3087;48.392;10.836;2024-01-15T09:04:35;5.90;;;4.07;;
6113;SDS011;3087;48.392;10.836;2024-01-15T09:07:01;5.00;;;3.63;;
6113;SDS011;3087;48.392;10.836;2024-01-15T09:09:27;9.03;;;4.00;;
6113;SDS011;3087;48.392;10.836;2024-01-15T09:11:52;6.17;;;3.87;;
6113;SDS011;3087;48.392;10.836;2024-01-15T09:14:18;6.33;;;4.10;;
6113;SDS011;3087;48.392;10.836;2024-01-15T09:16:45;5.40;;;3.67;;
6113;SDS011;3087;48.392;10.836;2024-01-15T09:19:10;7.17;;;4.13;;
6113;SDS011;3087;48.392;10.836;2024-01-15T09:21:37;4.97;;;3.53;;
6113;SDS011;3087;48.392;10.836;2024-01-15T09:24:03;5.03;;;3.70;;
6113;SDS011;3087;48.392;10.836;2024-01-15T09:26:29;4.83;;;3.77;;
6113;SDS011;3087;48.392;10.836;2024-01-15T09:28:55;7.17;;;4.03;;
6113;SDS011;3087;48.392;10.836;2024-01-15T09:31:20;5.70;;;3.97;;
6113;SDS011;3087;48.392;10.836;2024-01-15T09:33:52;4.93;;;3.50;;
6113;SDS011;3087;48.392;10.836;2024-01-15T09:36:21;5.10;;;3.93;;
6113;SDS011;3087;48.392;10.836;2024-01-15T09:38:47;4.70;;;3.47;;
6113;SDS011;3087;48.392;10.836;2024-01-15T09:41:13;5.07;;;3.43;;
6113;SDS011;3087;48.392;10.836;2024-01-15T09:43:40;3.50;;;3.20;;
6113;SDS011;3087;48.392;10.836;2024-01-15T09:46:05;4.60;;;3.47;;
6113;SDS011;3087;48.392;10.836;2024-01-15T09:48:33;5.37;;;3.20;;
6113;SDS011;3087;48.392;10.836;2024-01-15T09:51:01;4.63;;;3.33;;
6113;SDS011;3087;48.392;10.836;2024-01-15T09:53:27;5.23;;;2.90;;
6113;SDS011;3087;48.392;10.836;2024-01-15T09:55:53;4.20;;;2.70;;
6113;SDS011;3087;48.392;10.836;2024-01-15T09:58:18;3.53;;;2.90;;
6113;SDS011;3087;48.392;10.836;2024-01-15T10:00:46;6.23;;;2.80;;
6113;SDS011;3087;48.392;10.836;2024-01-15T10:03:15;2.80;;;2.53;;
6113;SDS011;3087;48.392;10.836;2024-01-15T10:05:41;4.17;;;3.03;;
6113;SDS011;3087;48.392;10.836;2024-01-15T10:08:07;3.33;;;2.90;;
6113;SDS011;3087;48.392;10.836;2024-01-15T10:10:33;4.60;;;2.90;;
6113;SDS011;3087;48.392;10.836;2024-01-15T10:13:01;4.70;;;2.70;;
6113;SDS011;3087;48.392;10.836;2024-01-15T10:15:29;5.13;;;2.63;;
6113;SDS011;3087;48.392;10.836;2024-01-15T10:17:54;3.87;;;2.57;;
6113;SDS011;3087;48.392;10.836;2024-01-15T10:20:20;2.83;;;2.63;;
6113;SDS011;3087;48.392;10.836;2024-01-15T10:22:47;2.87;;;2.57;;
6113;SDS011;3087;48.392;10.836;2024-01-15T10:25:13;3.23;;;2.50;;
6113;SDS011;3087;48.392;10.836;2024-01-15T10:27:43;3.07;;;2.47;;
6113;SDS011;3087;48.392;10.836;2024-01-15T10:30:09;6.27;;;2.70;;
6113;SDS011;3087;48.392;10.836;2024-01-15T10:32:35;8.20;;;2.57;;
6113;SDS011;3087;48.392;10.836;2024-01-15T10:35:01;5.20;;;2.40;;
6113;SDS011;3087;48.392;10.836;2024-01-15T10:37:27;4.17;;;2.60;;
6113;SDS011;3087;48.392;10.836;2024-01-15T10:39:52;3.17;;;2.40;;
6113;SDS011;3087;48.392;10.836;2024-01-15T10:42:18;2.90;;;2.60;;
6113;SDS011;3087;48.392;10.836;2024-01-15T10:44:44;5.23;;;3.10;;
6113;SDS011;3087;48.392;10.836;2024-01-15T10:47:13;4.80;;;3.00;;
6113;SDS011;3087;48.392;10.836;2024-01-15T10:49:39;6.83;;;2.20;;
6113;SDS011;3087;48.392;10.836;2024-01-15T10:52:06;6.43;;;3.40;;
6113;SDS011;3087;48.392;10.836;2024-01-15T10:54:32;3.57;;;2.77;;
6113;SDS011;3087;48.392;10.836;2024-01-15T10:56:58;4.03;;;2.90;;
6113;SDS011;3087;48.392;10.836;2024-01-15T10:59:24;4.07;;;3.00;;
6113;SDS011;3087;48.392;10.836;2024-01-15T11:01:50;7.30;;;2.90;;
6113;SDS011;3087;48.392;10.836;2024-01-15T11:04:20;3.73;;;2.80;;
6113;SDS011;3087;48.392;10.836;2024-01-15T11:06:49;10.03;;;3.33;;
6113;SDS011;3087;48.392;10.836;2024-01-15T11:09:21;5.40;;;2.77;;
6113;SDS011;3087;48.392;10.836;2024-01-15T11:11:48;8.10;;;2.63;;
6113;SDS011;3087;48.392;10.836;2024-01-15T11:14:33;5.80;;;2.93;;
6113;SDS011;3087;48.392;10.836;2024-01-15T11:17:22;4.03;;;2.97;;
6113;SDS011;3087;48.392;10.836;2024-01-15T11:19:48;6.30;;;2.87;;
6113;SDS011;3087;48.392;10.836;2024-01-15T11:24:55;6.57;;;3.20;;
6113;SDS011;3087;48.392;10.836;2024-01-15T11:27:40;3.87;;;2.90;;
6113;SDS011;3087;48.392;10.836;2024-01-15T11:30:08;5.90;;;2.90;;
6113;SDS011;3087;48.392;10.836;2024-01-15T11:32:35;3.37;;;2.80;;
6113;SDS011;3087;48.392;10.836;2024-01-15T11:35:01;3.60;;;2.80;;
6113;SDS011;3087;48.392;10.836;2024-01-15T11:37:29;3.93;;;3.03;;
6113;SDS011;3087;48.392;10.836;2024-01-15T11:40:17;4.30;;;3.10;;
6113;SDS011;3087;48.392;10.836;2024-01-15T11:42:44;8.50;;;3.20;;
6113;SDS011;3087;48.392;10.836;2024-01-15T11:45:10;11.33;;;4.73;;
6113;SDS011;3087;48.392;10.836;2024-01-15T11:50:07;8.73;;;3.10;;
6113;SDS011;3087;48.392;10.836;2024-01-15T11:52:34;4.17;;;3.10;;
6113;SDS011;3087;48.392;10.836;2024-01-15T11:57:45;10.20;;;3.63;;
6113;SDS011;3087;48.392;10.836;2024-01-15T12:00:12;5.00;;;3.73;;
6113;SDS011;3087;48.392;10.836;2024-01-15T12:02:46;7.83;;;3.20;;
6113;SDS011;3087;48.392;10.836;2024-01-15T12:05:13;6.03;;;3.63;;
6113;SDS011;3087;48.392;10.836;2024-01-15T12:07:45;4.30;;;3.50;;
6113;SDS011;3087;48.392;10.836;2024-01-15T12:10:13;4.63;;;3.30;;
6113;SDS011;3087;48.392;10.836;2024-01-15T12:12:59;4.60;;;4.10;;
6113;SDS011;3087;48.392;10.836;2024-01-15T12:15:29;5.93;;;3.80;;
6113;SDS011;3087;48.392;10.836;2024-01-15T12:17:55;4.37;;;3.40;;
6113;SDS011;3087;48.392;10.836;2024-01-15T12:20:23;5.47;;;3.83;;
6113;SDS011;3087;48.392;10.836;2024-01-15T12:22:52;5.50;;;3.60;;
6113;SDS011;3087;48.392;10.836;2024-01-15T12:25:18;5.37;;;3.60;;
6113;SDS011;3087;48.392;10.836;2024-01-15T12:27:44;4.50;;;3.37;;
6113;SDS011;3087;48.392;10.836;2024-01-15T12:30:11;7.50;;;4.10;;
6113;SDS011;3087;48.392;10.836;2024-01-15T12:32:37;6.37;;;4.00;;
6113;SDS011;3087;48.392;10.836;2024-01-15T12:35:03;13.77;;;3.97;;
6113;SDS011;3087;48.392;10.836;2024-01-15T12:37:29;7.07;;;4.07;;
6113;SDS011;3087;48.392;10.836;2024-01-15T12:39:55;6.40;;;3.93;;
6113;SDS011;3087;48.392;10.836;2024-01-15T12:42:21;22.57;;;4.40;;
6113;SDS011;3087;48.392;10.836;2024-01-15T12:44:46;8.63;;;3.83;;
6113;SDS011;3087;48.392;10.836;2024-01-15T12:47:12;6.03;;;4.00;;
6113;SDS011;3087;48.392;10.836;2024-01-15T12:49:39;4.93;;;4.37;;
6113;SDS011;3087;48.392;10.836;2024-01-15T12:52:07;7.63;;;4.23;;
6113;SDS011;3087;48.392;10.836;2024-01-15T12:54:34;4.10;;;3.60;;
6113;SDS011;3087;48.392;10.836;2024-01-15T12:56:59;5.67;;;4.23;;
6113;SDS011;3087;48.392;10.836;2024-01-15T12:59:25;5.17;;;3.73;;
6113;SDS011;3087;48.392;10.836;2024-01-15T13:01:51;5.93;;;4.20;;
6113;SDS011;3087;48.392;10.836;2024-01-15T13:04:22;5.33;;;4.00;;
6113;SDS011;3087;48.392;10.836;2024-01-15T13:06:49;4.63;;;3.60;;
6113;SDS011;3087;48.392;10.836;2024-01-15T13:09:15;4.97;;;4.07;;
6113;SDS011;3087;48.392;10.836;2024-01-15T13:11:42;5.70;;;4.67;;
6113;SDS011;3087;48.392;10.836;2024-01-15T13:14:08;5.07;;;3.90;;
6113;SDS011;3087;48.392;10.836;2024-01-15T13:16:33;5.90;;;4.33;;
6113;SDS011;3087;48.392;10.836;2024-01-15T13:18:59;5.93;;;3.87;;
6113;SDS011;3087;48.392;10.836;2024-01-15T13:21:25;5.63;;;3.97;;
6113;SDS011;3087;48.392;10.836;2024-01-15T13:23:50;7.57;;;4.17;;
6113;SDS011;3087;48.392;10.836;2024-01-15T13:26:16;10.17;;;3.83;;
6113;SDS011;3087;48.392;10.836;2024-01-15T13:28:43;6.23;;;4.40;;
6113;SDS011;3087;48.392;10.836;2024-01-15T13:31:09;5.30;;;3.93;;
6113;SDS011;3087;48.392;10.836;2024-01-15T13:33:34;5.70;;;4.43;;
6113;SDS011;3087;48.392;10.836;2024-01-15T13:36:00;6.57;;;4.90;;
6113;SDS011;3087;48.392;10.836;2024-01-15T13:38:26;5.40;;;4.13;;
6113;SDS011;3087;48.392;10.836;2024-01-15T13:40:52;5.70;;;4.80;;
6113;SDS011;3087;48.392;10.836;2024-01-15T13:43:20;7.40;;;4.30;;
6113;SDS011;3087;48.392;10.836;2024-01-15T13:45:46;5.27;;;4.77;;
6113;SDS011;3087;48.392;10.836;2024-01-15T13:48:11;6.77;;;4.10;;
6113;SDS011;3087;48.392;10.836;2024-01-15T13:50:37;4.97;;;3.97;;
6113;SDS011;3087;48.392;10.836;2024-01-15T13:53:03;6.90;;;4.10;;
6113;SDS011;3087;48.392;10.836;2024-01-15T13:55:29;6.70;;;4.73;;
6113;SDS011;3087;48.392;10.836;2024-01-15T13:57:55;5.60;;;4.60;;
6113;SDS011;3087;48.392;10.836;2024-01-15T14:00:21;6.07;;;4.60;;
6113;SDS011;3087;48.392;10.836;2024-01-15T14:02:50;6.67;;;5.00;;
6113;SDS011;3087;48.392;10.836;2024-01-15T14:05:15;6.93;;;5.27;;
6113;SDS011;3087;48.392;10.836;2024-01-15T14:07:41;6.23;;;5.20;;
6113;SDS011;3087;48.392;10.836;2024-01-15T14:10:08;7.57;;;5.07;;
6113;SDS011;3087;48.392;10.836;2024-01-15T14:12:34;7.67;;;4.30;;
6113;SDS011;3087;48.392;10.836;2024-01-15T14:15:01;9.80;;;5.87;;
6113;SDS011;3087;48.392;10.836;2024-01-15T14:17:27;6.97;;;4.77;;
6113;SDS011;3087;48.392;10.836;2024-01-15T14:19:53;6.60;;;4.90;;
6113;SDS011;3087;48.392;10.836;2024-01-15T14:22:19;8.10;;;5.37;;
6113;SDS011;3087;48.392;10.836;2024-01-15T14:24:44;11.77;;;6.37;;
6113;SDS011;3087;48.392;10.836;2024-01-15T14:27:10;8.83;;;5.50;;
6113;SDS011;3087;48.392;10.836;2024-01-15T14:29:35;8.07;;;5.83;;
6113;SDS011;3087;48.392;10.836;2024-01-15T14:32:01;10.63;;;6.47;;
6113;SDS011;3087;48.392;10.836;2024-01-15T14:34:27;9.70;;;6.47;;
6113;SDS011;3087;48.392;10.836;2024-01-15T14:36:53;7.50;;;6.00;;
6113;SDS011;3087;48.392;10.836;2024-01-15T14:39:19;9.57;;;5.47;;
6113;SDS011;3087;48.392;10.836;2024-01-15T14:41:46;9.33;;;6.50;;
6113;SDS011;3087;48.392;10.836;2024-01-15T14:44:12;8.57;;;6.17;;
6113;SDS011;3087;48.392;10.836;2024-01-15T14:46:38;8.93;;;6.67;;
6113;SDS011;3087;48.392;10.836;2024-01-15T14:49:04;9.27;;;6.83;;
6113;SDS011;3087;48.392;10.836;2024-01-15T14:51:30;10.57;;;6.20;;
6113;SDS011;3087;48.392;10.836;2024-01-15T14:53:55;10.57;;;6.47;;
6113;SDS011;3087;48.392;10.836;2024-01-15T14:56:21;9.27;;;6.20;;